Capitol Logistics 259


KMIA
Miami International Airport
Miami, Florida, US
CYHZ
Robert L. Stanfield International Airport
Halifax, , CA

Route Details

Aircraft Information
Primary: Boeing 767-300BDSF
Backup: Not Available
Route Data
Distance: 1403nm
Sched. Duration: 3h 29m
Avg. Duration: 3h 37m (+8m)
Times Flown: 4
Recm'd Route: PADUS2 PADUS PERMT AR16 ILM J174 RIFLE J62 ACK J585 DAVES TUSKY PEGGY3
Planned Altitude: 33,000ft
Origin Wx: KMIA 270953Z 31009KT 10SM SCT014 BKN075 BKN230 20/16 A2999 RMK AO2 SLP156 T02000161 $
Dest. Wx: CYHZ 271000Z 08012KT 15SM OVC057 M01/M03 A3007 RMK SC8 SLP189
Notes:

Financial History
Total Freight: 154,511lbs
Average Load: 38,628lbs/flt
Fuel Used: 136,936lbs
Avg. Fuel Used: 34,234lbs/flt
Fuel Expense: $168,431
Avg. Fuel Expense: $42,108
Avg. Fuel Cost: $1.23/lbs
Total Gross Income: $221,161
Pilot Pay: $856
Total Expenses: $24,093
Total Revenue: $25,623
Average Revenue: $55,290.13